Dati Storici

Data ora Umidita' aria (%) Temperatura aria (°C) Rad globale (W/m²) Gonioanemometro (°) Tacoanemometro (m/s) Pioggia (mm)
25-10-2012 00:10 92.2 % 11.248 1.229 314.501 -0.007 0
25-10-2012 00:00 92.2 % 11.371 0.96 1.138 -0.007 0
24-10-2012 23:50 92.3 % 11.606 1.139 306.761 -0.005 0
24-10-2012 23:40 92.3 % 11.715 0.678 307.237 -0.013 0
24-10-2012 23:30 92.5 % 11.919 0.614 320.218 0.201 0
24-10-2012 23:20 92.8 % 12.127 0.793 326.845 0.7 0
24-10-2012 23:10 92.6 % 12.046 0.588 294.542 0.324 0
24-10-2012 23:00 91.9 % 11.836 0.845 249.557 -0.014 0
24-10-2012 22:50 91.2 % 11.6 0.691 1.193 -0.001 0
24-10-2012 22:40 91.6 % 11.984 1.512 320.163 0.051 0
24-10-2012 22:30 90.8 % 11.656 0.742 313.329 -0.014 0
24-10-2012 22:20 90.7 % 11.896 0.781 312.321 -0.015 0
24-10-2012 22:10 90.6 % 12.091 0.704 317.6 -0.014 0
24-10-2012 22:00 90.7 % 12.337 1.281 320.418 0.049 0
24-10-2012 21:50 89.6 % 12.038 0.421 294.061 -0.015 0
24-10-2012 21:40 90.4 % 12.642 0.691 210.778 -0.014 0
24-10-2012 21:30 90 % 12.601 0.383 1.132 -0.015 0
24-10-2012 21:20 90.5 % 12.95 1.05 59.865 0.332 0
24-10-2012 21:10 89.1 % 12.467 0.64 317.291 -0.015 0
24-10-2012 21:00 89.2 % 12.822 0.73 326.786 -0.015 0

I dati sono presentati in modo automatico a scopo informativo. In seguito a verifica i dati possono subire modifiche o essere invalidati e non riportati negli archivi definitivi.